Time;durP1;ratioP1;P1;durP2;ratioP2;P2;SDS_P1;SDS_P2;PMS_P1;PMS_P2;Temp;Humidity;BMP_temperature;BMP_pressure;BME280_temperature;BME280_humidity;BME280_pressure;Samples;Min_cycle;Max_cycle;Signal;HPM_P1;HPM_P2
2021/04/09 00:00:25;;;;;;;;;21.00;21.00;;;;;27.67;59.64;98859.69;4989259;28;8828;-72
2021/04/09 00:02:56;;;;;;;;;21.75;21.75;;;;;27.64;61.65;98858.53;4993170;28;8825;-73
2021/04/09 00:05:25;;;;;;;;;21.25;21.25;;;;;27.54;60.36;98851.84;4991423;28;8890;-73
2021/04/09 00:07:55;;;;;;;;;22.50;21.50;;;;;27.64;59.89;98863.16;4976898;28;8836;-72
2021/04/09 00:10:27;;;;;;;;;18.00;18.00;;;;;27.54;60.57;98859.97;4993486;28;8848;-73
2021/04/09 00:12:56;;;;;;;;;16.75;16.75;;;;;27.67;60.86;98873.25;4993468;28;8848;-72
2021/04/09 00:15:24;;;;;;;;;17.50;17.50;;;;;27.70;59.69;98875.97;4991932;28;8840;-73
2021/04/09 00:17:53;;;;;;;;;22.00;22.00;;;;;27.67;60.88;98871.31;4993351;28;8883;-72
2021/04/09 00:20:23;;;;;;;;;20.25;20.25;;;;;27.76;59.92;98885.31;4993275;28;8859;-72
2021/04/09 00:22:52;;;;;;;;;16.50;16.50;;;;;27.81;60.93;98889.59;4992564;28;8883;-73
2021/04/09 00:25:21;;;;;;;;;15.25;15.25;;;;;27.85;59.56;98895.81;4992585;28;8894;-72
2021/04/09 00:27:50;;;;;;;;;15.25;15.25;;;;;27.88;60.43;98895.84;4991759;28;8836;-73
2021/04/09 00:30:26;;;;;;;;;18.25;17.75;;;;;27.93;60.78;98903.63;4991099;28;8848;-71
2021/04/09 00:32:55;;;;;;;;;13.25;13.25;;;;;27.96;60.28;98904.03;4991287;28;8832;-73
2021/04/09 00:35:24;;;;;;;;;17.75;17.75;;;;;27.98;59.77;98907.13;4991602;28;8844;-72
2021/04/09 00:37:53;;;;;;;;;15.75;15.75;;;;;28.02;60.66;98911.44;4989816;28;8836;-73
2021/04/09 00:40:23;;;;;;;;;15.50;15.50;;;;;27.98;58.97;98902.50;4991780;28;8844;-72
2021/04/09 00:42:52;;;;;;;;;17.00;17.00;;;;;28.01;59.70;98907.16;4992921;28;8841;-73
2021/04/09 00:45:21;;;;;;;;;18.25;18.25;;;;;28.11;59.08;98922.72;4993626;28;8914;-72
2021/04/09 00:47:50;;;;;;;;;19.25;19.25;;;;;28.12;58.00;98926.19;4992740;28;8832;-72
2021/04/09 00:50:20;;;;;;;;;17.50;17.00;;;;;28.04;57.83;98911.03;4990869;28;8942;-73
2021/04/09 00:52:50;;;;;;;;;15.75;15.75;;;;;28.13;57.98;98927.75;4973741;28;8868;-71
2021/04/09 00:55:19;;;;;;;;;16.00;16.00;;;;;28.18;58.10;98941.75;4988498;28;8864;-72
2021/04/09 00:57:50;;;;;;;;;20.75;19.50;;;;;28.18;59.24;98952.59;4990773;28;8836;-71
2021/04/09 01:00:22;;;;;;;;;34.00;32.33;;;;;28.21;59.21;98945.63;4990793;28;8933;-72
2021/04/09 01:02:54;;;;;;;;;24.75;24.25;;;;;28.21;59.24;98948.34;4991135;28;8969;-72
2021/04/09 01:05:23;;;;;;;;;13.25;13.25;;;;;28.29;58.25;98963.53;4991318;28;8999;-73
2021/04/09 01:07:52;;;;;;;;;18.00;18.00;;;;;28.34;59.27;98967.81;4973717;28;8851;-74
2021/04/09 01:10:21;;;;;;;;;18.00;18.00;;;;;28.31;59.37;98960.44;4972048;28;8854;-75
2021/04/09 01:12:50;;;;;;;;;19.75;19.50;;;;;28.45;58.61;98988.44;4988739;28;8836;-74
2021/04/09 01:15:19;;;;;;;;;22.50;18.50;;;;;28.38;59.44;98972.09;4991156;28;8856;-75
2021/04/09 01:18:19;;;;;;;;;19.75;18.50;;;;;28.54;59.31;98988.09;4989826;28;8836;-73
2021/04/09 01:21:17;;;;;;;;;19.50;19.50;;;;;28.55;59.55;98995.84;4990996;28;8852;-74
2021/04/09 01:24:11;;;;;;;;;28.50;27.50;;;;;28.62;58.97;99003.22;4991433;28;8848;-74
2021/04/09 01:27:11;;;;;;;;;21.50;21.50;;;;;28.67;58.54;99011.00;4992866;28;8906;-75
2021/04/09 01:30:04;;;;;;;;;19.25;19.25;;;;;28.70;58.78;99006.75;4995607;28;8836;-73
2021/04/09 01:32:33;;;;;;;;;14.50;14.50;;;;;28.71;58.91;99008.28;4991450;28;8859;-72
2021/04/09 01:35:08;;;;;;;;;17.75;17.75;;;;;28.81;58.77;99016.50;4990568;28;8958;-72
2021/04/09 01:37:41;;;;;;;;;15.25;15.25;;;;;28.84;56.59;99021.19;4990752;28;8844;-72
2021/04/09 01:40:22;;;;;;;;;19.50;19.50;;;;;28.87;58.35;99019.66;4989915;28;9643;-72
2021/04/09 01:42:55;;;;;;;;;20.00;20.00;;;;;28.90;57.87;99025.09;4991111;28;8837;-72
2021/04/09 01:45:25;;;;;;;;;19.25;18.75;;;;;28.89;59.06;99020.81;4990622;28;8899;-74
2021/04/09 01:47:56;;;;;;;;;21.50;21.00;;;;;28.92;58.82;99019.28;4991564;28;9569;-73
2021/04/09 01:50:26;;;;;;;;;20.25;20.25;;;;;28.99;58.70;99037.53;4992152;28;8848;-72
2021/04/09 01:52:58;;;;;;;;;18.50;18.50;;;;;28.98;57.83;99036.75;4974594;28;8840;-74
2021/04/09 01:55:28;;;;;;;;;14.25;13.75;;;;;29.05;57.18;99039.50;4992428;28;8864;-72
2021/04/09 01:57:59;;;;;;;;;19.75;19.00;;;;;29.09;58.33;99043.00;4992655;28;8851;-73
2021/04/09 02:00:27;;;;;;;;;17.50;17.50;;;;;29.10;57.94;99058.16;4992603;28;8863;-73
2021/04/09 02:02:58;;;;;;;;;16.75;16.50;;;;;29.04;57.97;99035.22;4992481;28;9589;-74
2021/04/09 02:05:29;;;;;;;;;19.00;19.00;;;;;29.16;58.50;99047.69;4992316;28;8836;-73
2021/04/09 02:07:58;;;;;;;;;16.25;16.25;;;;;29.20;58.30;99043.81;4991668;28;8851;-73
2021/04/09 02:10:27;;;;;;;;;23.00;22.75;;;;;29.18;58.25;99027.13;4991787;28;8858;-72
2021/04/09 02:12:55;;;;;;;;;20.50;20.50;;;;;29.32;58.14;99039.97;4975128;28;8925;-72
2021/04/09 02:15:26;;;;;;;;;18.00;18.00;;;;;29.39;57.32;99044.66;4992095;28;8871;-71
2021/04/09 02:17:54;;;;;;;;;16.50;16.50;;;;;29.44;57.74;99036.16;4992931;28;8881;-73
2021/04/09 02:20:23;;;;;;;;;16.25;16.25;;;;;29.34;57.12;99018.63;4993146;28;9606;-73
2021/04/09 02:22:52;;;;;;;;;17.75;16.75;;;;;29.55;56.36;99036.94;4992388;28;9611;-72
2021/04/09 02:25:25;;;;;;;;;16.50;16.50;;;;;29.54;56.33;99038.09;4993353;28;8844;-73
2021/04/09 02:27:54;;;;;;;;;17.75;17.25;;;;;29.58;56.70;99038.88;4992853;28;8844;-73
2021/04/09 02:30:24;;;;;;;;;20.50;20.00;;;;;29.60;57.43;99043.94;4992977;28;8954;-71
2021/04/09 02:32:53;;;;;;;;;17.75;17.00;;;;;29.56;56.54;99038.50;4992967;28;8894;-72
2021/04/09 02:35:21;;;;;;;;;18.75;18.75;;;;;29.65;56.11;99047.06;4975990;28;8982;-73
2021/04/09 02:37:51;;;;;;;;;11.00;11.00;;;;;29.60;55.87;99036.56;4992472;28;8876;-73
2021/04/09 02:40:23;;;;;;;;;15.50;15.50;;;;;29.60;55.91;99042.00;4992860;28;8859;-73
2021/04/09 02:42:53;;;;;;;;;15.25;15.25;;;;;29.61;55.67;99035.41;4991774;28;8871;-73
2021/04/09 02:45:23;;;;;;;;;17.25;17.00;;;;;29.66;56.20;99037.75;4991894;28;8871;-73
2021/04/09 02:47:56;;;;;;;;;17.00;16.75;;;;;29.67;56.17;99028.41;4993005;28;8844;-72
2021/04/09 02:50:44;;;;;;;;;17.00;15.50;;;;;29.69;56.24;99031.53;4992588;28;8859;-72
2021/04/09 02:53:18;;;;;;;;;12.75;12.75;;;;;29.75;55.62;99034.63;4992339;28;8862;-72
2021/04/09 02:55:49;;;;;;;;;16.50;16.50;;;;;29.80;55.87;99040.47;4991317;28;8836;-72
2021/04/09 02:58:19;;;;;;;;;13.00;12.75;;;;;29.84;55.79;99041.25;4991403;28;8843;-71
2021/04/09 03:00:49;;;;;;;;;15.00;14.75;;;;;29.92;56.11;99039.28;4985628;28;8870;-73
2021/04/09 03:03:19;;;;;;;;;17.00;17.00;;;;;29.97;55.22;99047.03;4988721;28;8844;-73
2021/04/09 03:05:52;;;;;;;;;16.25;16.25;;;;;30.01;54.87;99042.41;4991072;28;8840;-75
2021/04/09 03:08:21;;;;;;;;;15.25;15.25;;;;;30.06;55.07;99035.81;4989988;28;8870;-72
2021/04/09 03:10:49;;;;;;;;;17.50;17.25;;;;;30.10;54.63;99040.06;4990417;28;8859;-72
2021/04/09 03:13:18;;;;;;;;;16.50;16.50;;;;;30.07;55.08;99015.59;4990781;28;8832;-72
2021/04/09 03:16:00;;;;;;;;;17.75;16.75;;;;;30.23;55.43;99028.78;4990812;28;8841;-73
2021/04/09 03:18:32;;;;;;;;;15.75;14.25;;;;;30.25;54.85;99027.22;4988318;28;8852;-72
2021/04/09 03:21:05;;;;;;;;;15.75;15.75;;;;;30.11;54.81;99013.66;4990921;28;8855;-72
2021/04/09 03:23:33;;;;;;;;;20.00;18.50;;;;;30.18;55.10;99017.13;4989128;28;8938;-72
2021/04/09 03:26:01;;;;;;;;;17.75;17.00;;;;;30.27;54.84;99027.63;4988612;28;8844;-74
2021/04/09 03:28:30;;;;;;;;;20.00;18.75;;;;;30.25;54.45;99021.78;4987919;28;8828;-72
2021/04/09 03:30:58;;;;;;;;;18.00;18.00;;;;;30.30;55.27;99017.91;4988805;28;8860;-73
2021/04/09 03:33:26;;;;;;;;;25.25;21.75;;;;;30.34;54.87;99027.59;4988219;28;8852;-73
2021/04/09 03:35:54;;;;;;;;;19.25;19.25;;;;;30.38;54.78;99020.22;4989675;28;8836;-73
2021/04/09 03:38:23;;;;;;;;;18.50;18.50;;;;;30.42;54.80;99012.03;4992553;28;8860;-71
2021/04/09 03:40:51;;;;;;;;;15.75;15.75;;;;;30.52;54.77;99016.69;4991297;28;8925;-72
2021/04/09 03:43:20;;;;;;;;;14.50;14.50;;;;;30.49;54.41;99001.91;4990541;28;8894;-72
2021/04/09 03:45:48;;;;;;;;;16.00;16.00;;;;;30.67;54.55;99015.50;4988880;28;8906;-72
2021/04/09 03:48:16;;;;;;;;;17.75;17.75;;;;;30.76;54.23;99009.63;4992069;28;8825;-72
2021/04/09 03:50:44;;;;;;;;;16.50;16.50;;;;;30.86;54.07;99013.47;4991711;28;8824;-73
2021/04/09 03:53:12;;;;;;;;;15.00;15.00;;;;;30.91;53.15;99013.06;4992330;28;8816;-72
2021/04/09 03:55:41;;;;;;;;;14.75;14.75;;;;;30.96;53.70;99001.75;4992404;28;8990;-72
2021/04/09 03:58:09;;;;;;;;;15.75;15.50;;;;;31.03;52.98;99001.72;4974190;28;8848;-72
2021/04/09 04:00:37;;;;;;;;;18.25;16.50;;;;;31.10;53.14;99005.19;4991944;28;8824;-72
2021/04/09 04:03:05;;;;;;;;;14.25;14.25;;;;;31.16;52.26;98999.34;4992455;28;8907;-72
2021/04/09 04:05:34;;;;;;;;;15.25;15.25;;;;;31.25;52.27;98997.72;4992525;28;8863;-72
2021/04/09 04:08:02;;;;;;;;;16.25;16.25;;;;;31.36;52.83;99000.38;4990329;28;8836;-72
2021/04/09 04:10:31;;;;;;;;;18.25;17.50;;;;;31.41;51.21;98994.50;4991970;28;8836;-74
2021/04/09 04:12:59;;;;;;;;;16.25;15.25;;;;;31.46;53.40;99004.97;4991439;28;9316;-72
2021/04/09 04:15:27;;;;;;;;;21.75;21.25;;;;;31.38;52.89;98987.09;4991675;28;8990;-73
2021/04/09 04:17:56;;;;;;;;;14.75;14.00;;;;;31.36;51.87;98984.78;4992101;28;8828;-71
2021/04/09 04:20:24;;;;;;;;;19.50;18.75;;;;;31.42;53.09;98987.88;4992307;28;8840;-71
2021/04/09 04:22:52;;;;;;;;;14.25;14.25;;;;;31.43;52.92;98987.47;4992332;28;8867;-71
2021/04/09 04:25:20;;;;;;;;;15.50;13.75;;;;;31.44;52.49;98988.25;4991652;28;8890;-71
2021/04/09 04:27:49;;;;;;;;;15.50;15.50;;;;;31.50;51.08;98980.41;4992873;28;9572;-71
2021/04/09 04:30:17;;;;;;;;;18.50;18.50;;;;;31.56;50.43;98971.41;4975085;28;8828;-71
2021/04/09 04:32:46;;;;;;;;;17.25;17.25;;;;;31.63;51.13;98959.66;4989818;28;8860;-71
2021/04/09 04:35:14;;;;;;;;;13.00;13.00;;;;;31.79;50.61;98959.94;4991634;28;8862;-71
2021/04/09 04:37:43;;;;;;;;;11.75;11.75;;;;;31.87;49.65;98955.97;4989173;28;8836;-71
2021/04/09 04:40:11;;;;;;;;;19.00;18.25;;;;;32.07;50.53;98967.06;4990847;28;8855;-71
2021/04/09 04:42:39;;;;;;;;;12.50;12.00;;;;;32.16;50.37;98961.16;4993565;28;8875;-71
2021/04/09 04:45:08;;;;;;;;;17.00;15.00;;;;;32.17;48.88;98949.03;4991679;28;8844;-71
2021/04/09 04:47:36;;;;;;;;;15.75;15.00;;;;;32.21;51.68;98939.63;4991625;28;8876;-71
2021/04/09 04:50:07;;;;;;;;;12.75;12.75;;;;;32.15;48.53;98926.84;4988345;28;8840;-71
2021/04/09 04:52:35;;;;;;;;;10.75;10.75;;;;;32.22;48.92;98921.31;4990028;28;8870;-71
2021/04/09 04:55:05;;;;;;;;;13.00;13.00;;;;;32.29;50.91;98911.09;4988640;28;9576;-72
2021/04/09 04:57:33;;;;;;;;;12.00;12.00;;;;;32.30;47.93;98895.50;4989226;28;8875;-72
2021/04/09 05:00:02;;;;;;;;;10.50;10.50;;;;;32.32;48.61;98893.91;4992210;28;8870;-72
2021/04/09 05:02:31;;;;;;;;;13.75;13.75;;;;;32.39;50.77;98899.28;4993520;28;8879;-73
2021/04/09 05:04:59;;;;;;;;;14.25;14.25;;;;;32.42;49.73;98897.69;4991195;28;8896;-74
2021/04/09 05:07:27;;;;;;;;;14.50;14.50;;;;;32.37;49.32;98888.00;4990215;28;8836;-71
2021/04/09 05:09:56;;;;;;;;;13.50;13.50;;;;;32.47;48.76;98896.47;4987322;28;8812;-72
2021/04/09 05:12:24;;;;;;;;;13.25;13.25;;;;;32.35;48.13;98860.34;4970979;28;8864;-71
2021/04/09 05:14:53;;;;;;;;;7.75;7.75;;;;;32.60;47.28;98891.97;4986175;28;8856;-71
2021/04/09 05:17:23;;;;;;;;;11.25;11.25;;;;;32.69;47.53;98873.13;4971832;28;8852;-71
2021/04/09 05:19:51;;;;;;;;;13.00;13.00;;;;;32.87;46.87;98876.41;4992163;28;8836;-73
2021/04/09 05:22:19;;;;;;;;;7.75;7.75;;;;;32.97;46.63;98863.75;4990383;28;8850;-73
2021/04/09 05:24:48;;;;;;;;;11.00;11.00;;;;;33.10;47.72;98851.06;4970784;28;8842;-73
2021/04/09 05:27:17;;;;;;;;;13.75;13.75;;;;;33.33;49.19;98845.63;4988509;28;8918;-72
2021/04/09 05:29:45;;;;;;;;;13.25;13.25;;;;;33.37;47.41;98837.34;4988849;28;9644;-73
2021/04/09 05:32:17;;;;;;;;;11.75;11.75;;;;;33.49;48.39;98834.03;4987894;28;8851;-72
2021/04/09 05:34:46;;;;;;;;;14.50;14.25;;;;;33.58;46.92;98831.50;4986786;28;8962;-72
2021/04/09 05:37:21;;;;;;;;;16.25;16.25;;;;;33.68;46.80;98819.59;4974505;28;8856;-72
2021/04/09 05:39:50;;;;;;;;;14.50;14.25;;;;;33.77;46.59;98810.06;4988877;28;8940;-75
2021/04/09 05:42:19;;;;;;;;;15.50;15.50;;;;;33.86;45.86;98804.78;4989038;28;8980;-73
2021/04/09 05:44:47;;;;;;;;;14.00;14.00;;;;;33.80;47.42;98788.13;4984460;28;9010;-74
2021/04/09 05:47:16;;;;;;;;;15.50;15.50;;;;;33.94;48.95;98803.47;4985820;28;8897;-72
2021/04/09 05:49:44;;;;;;;;;17.25;17.25;;;;;33.87;47.86;98795.41;4989414;28;8848;-72
2021/04/09 05:52:13;;;;;;;;;21.50;21.50;;;;;33.78;48.93;98785.00;4989625;28;8852;-71
2021/04/09 05:54:42;;;;;;;;;15.25;15.00;;;;;33.83;48.74;98784.53;4989564;28;8870;-71
2021/04/09 05:57:11;;;;;;;;;17.00;17.00;;;;;33.84;47.23;98785.28;4989792;28;8926;-72
2021/04/09 05:59:39;;;;;;;;;23.00;21.75;;;;;33.88;45.23;98780.50;4989442;28;8859;-71
2021/04/09 06:02:08;;;;;;;;;21.00;20.00;;;;;33.92;47.56;98778.47;4984556;28;8905;-71
2021/04/09 06:04:36;;;;;;;;;19.00;19.00;;;;;34.00;47.45;98764.22;4988590;28;8859;-71
2021/04/09 06:07:05;;;;;;;;;23.50;20.50;;;;;34.09;47.68;98765.63;4987345;28;8864;-73
2021/04/09 06:09:33;;;;;;;;;19.50;19.50;;;;;34.13;48.65;98756.13;4990387;28;8855;-71
2021/04/09 06:12:03;;;;;;;;;21.75;21.75;;;;;34.13;47.62;98752.63;4990471;28;9010;-71
2021/04/09 06:14:33;;;;;;;;;14.25;14.25;;;;;34.12;48.61;98754.59;4990459;28;8843;-71
2021/04/09 06:17:02;;;;;;;;;17.00;17.00;;;;;34.10;48.33;98753.47;4993106;28;8963;-69
2021/04/09 06:19:30;;;;;;;;;19.75;19.75;;;;;34.09;48.67;98758.19;4981357;28;8852;-69
2021/04/09 06:21:59;;;;;;;;;15.00;13.75;;;;;33.99;48.04;98756.44;4972052;28;8838;-71
2021/04/09 06:24:27;;;;;;;;;19.75;18.50;;;;;33.63;47.98;98732.53;4985073;28;8824;-71
2021/04/09 06:26:55;;;;;;;;;14.75;14.75;;;;;33.25;47.80;98695.78;4984077;28;8840;-72
2021/04/09 06:29:24;;;;;;;;;18.00;17.50;;;;;33.01;48.27;98706.75;4984346;28;8862;-71
2021/04/09 06:31:52;;;;;;;;;18.50;18.50;;;;;32.77;48.45;98699.75;4982140;28;8840;-70
2021/04/09 06:34:20;;;;;;;;;10.75;9.25;;;;;32.54;48.97;98708.69;4983030;28;8860;-71
2021/04/09 06:36:49;;;;;;;;;8.00;8.00;;;;;32.38;49.19;98717.53;4979362;28;8864;-71
2021/04/09 06:39:17;;;;;;;;;8.75;8.75;;;;;32.15;49.42;98709.28;4987234;28;9458;-71
2021/04/09 06:41:45;;;;;;;;;9.00;9.00;;;;;32.01;49.11;98702.06;4982202;28;8850;-72
2021/04/09 06:44:13;;;;;;;;;8.75;8.75;;;;;31.85;49.68;98673.84;4968187;28;8858;-71
2021/04/09 06:46:41;;;;;;;;;9.00;9.00;;;;;31.88;49.36;98689.38;4968369;28;8868;-71
2021/04/09 06:49:14;;;;;;;;;11.00;11.00;;;;;31.81;48.99;98664.94;4968722;28;8844;-71
2021/04/09 06:51:47;;;;;;;;;10.25;10.25;;;;;31.89;48.98;98682.75;4987733;28;9655;-71
2021/04/09 06:54:17;;;;;;;;;14.00;11.25;;;;;31.86;48.69;98664.47;4986749;28;8832;-73
2021/04/09 06:56:47;;;;;;;;;13.00;13.00;;;;;31.93;49.01;98656.19;4986309;28;9590;-74
2021/04/09 06:59:29;;;;;;;;;11.75;11.75;;;;;32.04;48.81;98654.09;4984402;28;8840;-72
2021/04/09 07:02:01;;;;;;;;;14.25;13.25;;;;;32.15;48.50;98646.50;4980797;28;8898;-73
2021/04/09 07:04:30;;;;;;;;;15.50;14.50;;;;;32.25;47.97;98644.81;4968192;28;8861;-72
2021/04/09 07:06:58;;;;;;;;;9.75;9.75;;;;;32.28;48.15;98652.19;4986154;28;8840;-71
2021/04/09 07:09:27;;;;;;;;;8.50;8.25;;;;;32.26;47.97;98632.72;4972394;28;8875;-73
2021/04/09 07:11:56;;;;;;;;;12.25;12.25;;;;;32.20;48.09;98616.03;4988872;28;8840;-73
2021/04/09 07:14:56;;;;;;;;;16.25;15.00;;;;;32.35;47.87;98633.75;4988107;28;8860;-72
2021/04/09 07:17:44;;;;;;;;;14.00;14.00;;;;;32.46;47.66;98641.75;4980099;28;8880;-71
2021/04/09 07:20:23;;;;;;;;;9.50;9.50;;;;;32.51;47.48;98627.59;4977280;28;8948;-71
2021/04/09 07:22:55;;;;;;;;;9.75;8.50;;;;;32.57;47.60;98614.25;4976862;28;9684;-72
2021/04/09 07:25:29;;;;;;;;;13.25;13.25;;;;;32.66;47.24;98601.56;4989753;28;8934;-72
2021/04/09 07:28:11;;;;;;;;;16.75;15.50;;;;;32.72;47.20;98601.88;4987098;28;8876;-73
2021/04/09 07:30:52;;;;;;;;;11.25;11.25;;;;;32.66;47.05;98593.38;4989999;28;8859;-71
2021/04/09 07:33:29;;;;;;;;;12.75;12.75;;;;;32.77;47.16;98604.16;4986648;28;8877;-71
2021/04/09 07:36:00;;;;;;;;;13.50;13.00;;;;;32.82;47.20;98579.06;4980342;28;8834;-70
2021/04/09 07:38:34;;;;;;;;;12.25;12.25;;;;;32.89;46.87;98561.78;4979752;28;8839;-72
2021/04/09 07:41:09;;;;;;;;;13.25;13.25;;;;;33.04;47.07;98566.53;4987945;28;8863;-72
2021/04/09 07:43:40;;;;;;;;;14.75;14.75;;;;;33.15;46.71;98577.25;4982945;28;9754;-71
2021/04/09 07:46:20;;;;;;;;;15.00;15.00;;;;;33.15;46.68;98576.47;4975713;28;8979;-71
2021/04/09 07:49:00;;;;;;;;;16.50;16.50;;;;;33.15;46.58;98571.78;4978409;28;8848;-71
2021/04/09 07:51:29;;;;;;;;;16.75;16.75;;;;;33.17;46.64;98582.28;4978626;28;8842;-72
2021/04/09 07:54:10;;;;;;;;;14.50;14.50;;;;;33.17;44.91;98583.06;4981235;28;8828;-71
2021/04/09 07:56:49;;;;;;;;;15.25;15.25;;;;;33.24;46.60;98582.16;4981690;28;8858;-72
2021/04/09 07:59:39;;;;;;;;;17.75;17.75;;;;;33.26;46.25;98590.69;4971855;28;8910;-71
2021/04/09 08:02:12;;;;;;;;;10.25;10.25;;;;;33.30;46.26;98588.69;4980401;28;8842;-74
2021/04/09 08:04:47;;;;;;;;;13.75;13.75;;;;;33.35;46.04;98583.50;4976461;28;8836;-73
2021/04/09 08:07:34;;;;;;;;;9.50;8.75;;;;;33.44;45.78;98582.91;4983767;28;8816;-72
2021/04/09 08:10:07;;;;;;;;;10.75;10.75;;;;;33.54;45.71;98576.44;4980063;28;8836;-73
2021/04/09 08:12:37;;;;;;;;;8.50;8.50;;;;;33.56;44.38;98579.53;4989420;28;8930;-72
2021/04/09 08:15:27;;;;;;;;;11.50;11.50;;;;;33.49;45.31;98568.75;4987001;28;8844;-71
2021/04/09 08:18:00;;;;;;;;;8.00;8.00;;;;;33.43;45.04;98567.69;4988558;28;8856;-72
2021/04/09 08:20:49;;;;;;;;;9.00;9.00;;;;;33.31;44.89;98560.16;4988389;28;8868;-72
2021/04/09 08:23:19;;;;;;;;;9.50;9.50;;;;;33.06;44.99;98536.06;4984816;28;8838;-71
2021/04/09 08:25:50;;;;;;;;;12.00;12.00;;;;;33.10;44.83;98542.22;4965500;28;8832;-72
2021/04/09 08:28:20;;;;;;;;;11.50;11.50;;;;;33.14;45.21;98539.41;4983926;28;8905;-72
2021/04/09 08:30:49;;;;;;;;;11.00;10.50;;;;;33.15;45.01;98543.69;4992301;28;8840;-74
2021/04/09 08:33:19;;;;;;;;;14.00;13.25;;;;;33.22;44.84;98551.72;4990962;28;8890;-72
2021/04/09 08:35:47;;;;;;;;;9.00;9.00;;;;;33.23;44.75;98543.09;4988572;28;8866;-75
2021/04/09 08:38:16;;;;;;;;;11.50;11.50;;;;;33.28;44.79;98539.91;4990266;28;8844;-72
2021/04/09 08:40:44;;;;;;;;;9.50;9.50;;;;;33.31;44.66;98543.75;4987315;28;8824;-72
2021/04/09 08:43:14;;;;;;;;;11.50;11.50;;;;;33.30;44.36;98540.25;4983595;28;8914;-71
2021/04/09 08:45:42;;;;;;;;;15.00;13.75;;;;;33.28;44.48;98542.63;4982714;28;8829;-71
2021/04/09 08:48:12;;;;;;;;;16.25;16.00;;;;;33.15;44.69;98530.00;4982742;28;8902;-72
2021/04/09 08:50:43;;;;;;;;;8.00;8.00;;;;;33.12;44.45;98520.69;4987004;28;8872;-73
2021/04/09 08:53:23;;;;;;;;;15.50;15.50;;;;;33.11;44.72;98516.41;4989790;28;8946;-73
2021/04/09 08:55:52;;;;;;;;;10.75;10.75;;;;;33.11;44.38;98512.91;4983962;28;8852;-71
2021/04/09 08:58:21;;;;;;;;;15.75;14.00;;;;;33.05;44.75;98497.03;4983880;28;8854;-71
2021/04/09 09:00:55;;;;;;;;;12.25;11.00;;;;;33.22;44.63;98516.97;4988068;28;8983;-73
2021/04/09 09:03:29;;;;;;;;;15.75;15.75;;;;;33.25;44.89;98512.59;4988453;28;9542;-72
2021/04/09 09:06:01;;;;;;;;;17.50;17.50;;;;;33.26;44.63;98506.72;4987452;28;8844;-72
2021/04/09 09:08:57;;;;;;;;;14.75;14.75;;;;;33.34;44.75;98504.63;4985484;28;8839;-72
2021/04/09 09:11:50;;;;;;;;;23.00;22.25;;;;;33.41;44.90;98515.41;4987139;28;8848;-71
2021/04/09 09:14:38;;;;;;;;;15.50;15.00;;;;;33.42;44.70;98508.72;4971910;28;8866;-71
2021/04/09 09:17:36;;;;;;;;;13.00;13.00;;;;;33.33;44.70;98495.66;4972127;28;9652;-72
2021/04/09 09:20:11;;;;;;;;;16.75;16.00;;;;;33.31;44.78;98508.97;4986030;28;8951;-72
2021/04/09 09:22:49;;;;;;;;;14.75;14.75;;;;;33.29;44.80;98500.44;4986373;28;8887;-74
2021/04/09 09:25:31;;;;;;;;;14.25;14.25;;;;;33.41;44.54;98517.38;4988173;28;8843;-73
2021/04/09 09:28:01;;;;;;;;;16.75;15.50;;;;;33.41;44.53;98504.47;4987562;28;8847;-73
2021/04/09 09:30:41;;;;;;;;;13.00;13.00;;;;;33.44;44.67;98508.31;4989507;28;8847;-72
2021/04/09 09:33:23;;;;;;;;;10.50;10.50;;;;;33.48;44.50;98511.72;4985200;28;9578;-72
2021/04/09 09:36:04;;;;;;;;;13.75;13.75;;;;;33.48;44.58;98511.72;4983090;28;8836;-71
2021/04/09 09:38:55;;;;;;;;;14.00;14.00;;;;;33.49;44.70;98505.84;4982674;28;8844;-74
2021/04/09 09:41:44;;;;;;;;;15.25;14.50;;;;;33.53;44.26;98506.53;4982486;28;8965;-72
2021/04/09 09:44:33;;;;;;;;;11.50;11.50;;;;;33.55;44.63;98515.06;4981196;28;8824;-71
2021/04/09 09:47:25;;;;;;;;;16.25;16.25;;;;;33.52;44.14;98506.94;4979882;28;8848;-71
2021/04/09 09:50:14;;;;;;;;;13.00;13.00;;;;;33.47;44.14;98516.44;4985667;28;8864;-71
2021/04/09 09:53:04;;;;;;;;;16.50;16.50;;;;;33.29;43.46;98499.66;4983660;28;8898;-73
2021/04/09 09:55:41;;;;;;;;;20.25;20.25;;;;;33.25;44.10;98513.38;4982325;28;8852;-73
2021/04/09 09:58:30;;;;;;;;;13.75;13.75;;;;;33.24;44.14;98517.31;4970908;28;8838;-73
2021/04/09 10:01:00;;;;;;;;;11.00;11.00;;;;;33.15;44.82;98514.38;4979811;28;8862;-72
2021/04/09 10:03:33;;;;;;;;;14.00;14.00;;;;;33.05;44.53;98509.91;4988217;28;8844;-72
2021/04/09 10:06:08;;;;;;;;;16.25;16.25;;;;;32.94;43.67;98507.41;4991173;28;8848;-72
2021/04/09 10:08:56;;;;;;;;;12.75;12.75;;;;;32.91;44.86;98504.75;4989718;28;8891;-72
2021/04/09 10:11:25;;;;;;;;;13.25;13.25;;;;;32.91;44.66;98510.97;4985909;28;9589;-72
2021/04/09 10:13:55;;;;;;;;;14.25;14.25;;;;;32.89;44.34;98515.31;4992265;28;8919;-72
2021/04/09 10:16:28;;;;;;;;;13.50;13.50;;;;;32.89;44.68;98518.06;4972939;28;8889;-72
2021/04/09 10:18:58;;;;;;;;;14.60;12.20;;;;;32.85;44.05;98520.09;4979198;28;8873;-72
2021/04/09 10:21:39;;;;;;;;;14.00;14.00;;;;;32.85;44.95;98520.88;4981774;28;8878;-72
2021/04/09 10:24:27;;;;;;;;;11.75;11.75;;;;;32.79;45.11;98522.53;4980590;28;8897;-71
2021/04/09 10:27:02;;;;;;;;;14.50;14.50;;;;;32.66;44.88;98510.69;4980731;28;8847;-72
2021/04/09 10:29:36;;;;;;;;;14.00;14.00;;;;;32.67;45.00;98534.06;4978724;28;8969;-72
2021/04/09 10:32:13;;;;;;;;;11.75;11.75;;;;;32.61;44.25;98533.00;4981010;28;8815;-72
2021/04/09 10:34:42;;;;;;;;;14.25;14.25;;;;;32.53;45.00;98531.59;4981116;28;8852;-72
2021/04/09 10:37:19;;;;;;;;;12.75;12.75;;;;;32.52;44.82;98536.31;4977070;28;8943;-72
2021/04/09 10:39:48;;;;;;;;;13.25;13.25;;;;;32.43;43.81;98536.88;4986816;28;8932;-71
2021/04/09 10:42:17;;;;;;;;;12.50;12.50;;;;;32.47;43.64;98555.94;4979971;28;8886;-72
2021/04/09 10:44:46;;;;;;;;;12.50;12.50;;;;;32.47;44.32;98555.94;4977639;28;8852;-71
2021/04/09 10:47:15;;;;;;;;;12.00;11.25;;;;;32.46;44.83;98551.66;4979356;28;8872;-72
2021/04/09 10:49:45;;;;;;;;;12.75;12.25;;;;;32.42;45.15;98550.94;4977475;28;8904;-72
2021/04/09 10:52:16;;;;;;;;;13.00;13.00;;;;;32.37;44.97;98554.16;4978649;28;8880;-72
2021/04/09 10:54:47;;;;;;;;;13.25;11.25;;;;;32.26;44.89;98553.56;4984716;28;8876;-71
2021/04/09 10:57:20;;;;;;;;;14.00;14.00;;;;;32.30;45.53;98579.63;4988314;28;8809;-72
2021/04/09 10:59:51;;;;;;;;;13.25;13.25;;;;;32.27;45.65;98582.41;4969924;28;8836;-71
2021/04/09 11:02:24;;;;;;;;;13.50;13.50;;;;;32.16;45.61;98582.56;4985778;28;8812;-72
2021/04/09 11:04:56;;;;;;;;;13.25;12.25;;;;;32.08;45.51;98592.81;4985365;28;8872;-71
2021/04/09 11:07:43;;;;;;;;;12.50;12.50;;;;;32.07;45.70;98599.47;4986937;28;9075;-73
2021/04/09 11:10:38;;;;;;;;;17.25;17.25;;;;;32.02;45.81;98607.34;4987392;28;9684;-72
2021/04/09 11:13:08;;;;;;;;;15.50;15.50;;;;;31.88;45.88;98596.66;4989047;28;8840;-71
2021/04/09 11:15:44;;;;;;;;;14.50;14.50;;;;;31.76;45.99;98576.16;4980741;28;8824;-72
2021/04/09 11:18:14;;;;;;;;;17.50;17.00;;;;;31.82;45.83;98587.38;4984738;28;8870;-73
2021/04/09 11:20:46;;;;;;;;;17.00;17.00;;;;;31.74;45.94;98584.75;4984701;28;8824;-71
2021/04/09 11:23:17;;;;;;;;;21.75;19.75;;;;;31.85;46.61;98614.59;4988526;28;8832;-71
2021/04/09 11:25:48;;;;;;;;;16.50;16.50;;;;;31.84;46.47;98610.34;4986401;28;8847;-71
2021/04/09 11:28:36;;;;;;;;;17.00;17.00;;;;;31.82;46.63;98615.44;4989576;28;8843;-72
2021/04/09 11:31:08;;;;;;;;;15.25;15.25;;;;;31.70;46.42;98614.03;4990207;28;8848;-72
2021/04/09 11:33:40;;;;;;;;;17.25;17.25;;;;;31.73;46.47;98620.63;4988427;28;8843;-72
2021/04/09 11:36:28;;;;;;;;;26.00;23.50;;;;;31.68;46.95;98630.03;4990155;28;8836;-73
2021/04/09 11:39:16;;;;;;;;;19.50;19.50;;;;;31.65;47.06;98632.78;4989919;28;8859;-73
2021/04/09 11:41:47;;;;;;;;;13.75;13.75;;;;;31.64;47.16;98634.75;4984551;28;8861;-73
2021/04/09 11:44:29;;;;;;;;;21.00;21.00;;;;;31.68;47.79;98638.22;4989216;28;8840;-71
2021/04/09 11:47:29;;;;;;;;;31.25;30.50;;;;;31.72;48.11;98640.91;4988159;28;8816;-72
2021/04/09 11:50:29;;;;;;;;;30.25;29.00;;;;;31.76;47.94;98633.44;4971170;28;8836;-72
2021/04/09 11:53:05;;;;;;;;;28.75;25.75;;;;;31.80;47.80;98639.63;4986141;28;8825;-73